Time;durP1;ratioP1;P1;durP2;ratioP2;P2;SDS_P1;SDS_P2;PMS_P1;PMS_P2;Temp;Humidity;BMP_temperature;BMP_pressure;BME280_temperature;BME280_humidity;BME280_pressure;Samples;Min_cycle;Max_cycle;Signal;HPM_P1;HPM_P2
2022/07/20 00:02:32;;;;;;;;;;;28.40;66.10;;;;;;8371716;28;19929;-66
2022/07/20 00:06:33;;;;;;;;;;;28.30;66.00;;;;;;8383696;28;19929;-66
2022/07/20 00:14:56;;;;;;;;;;;28.20;66.00;;;;;;8384243;28;19920;-66
2022/07/20 00:18:58;;;;;;;;;;;28.10;66.20;;;;;;8371356;28;20268;-66
2022/07/20 00:22:59;;;;;;;;;;;28.00;66.30;;;;;;8358755;28;19931;-66
2022/07/20 00:27:01;;;;;;;;;;;28.00;66.40;;;;;;8373028;28;19928;-66
2022/07/20 00:31:03;;;;;;;;;;;27.90;66.30;;;;;;8380781;28;19921;-66
2022/07/20 00:35:06;;;;;;;;;;;27.90;66.60;;;;;;8368846;28;19924;-66
2022/07/20 00:39:12;;;;;;;;;;;27.80;66.90;;;;;;8357863;28;20332;-66
2022/07/20 00:43:14;;;;;;;;;;;27.70;67.30;;;;;;8388312;28;19920;-66
2022/07/20 00:47:15;;;;;;;;;;;27.70;67.50;;;;;;8389462;28;19920;-66
2022/07/20 00:51:17;;;;;;;;;;;27.60;67.80;;;;;;8391638;28;20394;-66
2022/07/20 00:55:19;;;;;;;;;;;27.50;67.90;;;;;;8368762;28;19921;-66
2022/07/20 00:59:20;;;;;;;;;;;27.40;68.00;;;;;;8375413;28;19928;-66
2022/07/20 01:03:22;;;;;;;;;;;27.30;68.10;;;;;;8379442;28;19939;-66
2022/07/20 01:07:24;;;;;;;;;;;27.20;68.20;;;;;;8384136;28;19920;-66
2022/07/20 01:11:25;;;;;;;;;;;27.00;68.30;;;;;;8387283;28;19920;-66
2022/07/20 01:15:29;;;;;;;;;;;26.80;68.30;;;;;;8369047;28;20307;-66
2022/07/20 01:19:30;;;;;;;;;;;26.60;68.40;;;;;;8390206;28;20390;-66
2022/07/20 01:23:32;;;;;;;;;;;26.40;68.60;;;;;;8384738;28;19924;-66
2022/07/20 01:27:34;;;;;;;;;;;26.10;69.30;;;;;;8387662;28;19927;-66
2022/07/20 01:31:35;;;;;;;;;;;25.90;68.40;;;;;;8374027;28;19921;-66
2022/07/20 01:35:37;;;;;;;;;;;25.70;68.40;;;;;;8374139;28;20232;-66
2022/07/20 01:39:39;;;;;;;;;;;25.60;68.30;;;;;;8407187;28;20299;-66
2022/07/20 01:43:41;;;;;;;;;;;25.60;68.40;;;;;;8391664;28;20287;-66
2022/07/20 01:47:42;;;;;;;;;;;25.60;68.40;;;;;;8392660;28;20379;-66
2022/07/20 01:51:44;;;;;;;;;;;25.50;68.60;;;;;;8395152;28;20339;-66
2022/07/20 01:55:45;;;;;;;;;;;25.50;68.70;;;;;;8396221;28;19927;-66
2022/07/20 01:59:47;;;;;;;;;;;25.50;69.00;;;;;;8393979;28;19920;-66
2022/07/20 02:03:49;;;;;;;;;;;25.40;68.90;;;;;;8407693;28;19928;-66
2022/07/20 02:07:50;;;;;;;;;;;25.40;69.00;;;;;;8383234;28;19924;-66
2022/07/20 02:11:52;;;;;;;;;;;25.30;69.10;;;;;;8367747;28;19920;-66
2022/07/20 02:20:14;;;;;;;;;;;25.40;69.50;;;;;;8386290;28;19974;-66
2022/07/20 02:24:16;;;;;;;;;;;25.30;69.70;;;;;;8390001;28;19929;-66
2022/07/20 02:28:18;;;;;;;;;;;25.20;70.00;;;;;;8382829;28;19944;-66
2022/07/20 02:32:19;;;;;;;;;;;25.10;70.50;;;;;;8392252;28;19943;-66
2022/07/20 02:36:21;;;;;;;;;;;24.90;70.10;;;;;;8373343;28;19928;-66
2022/07/20 02:40:23;;;;;;;;;;;24.80;70.20;;;;;;8384494;28;20264;-66
2022/07/20 02:44:24;;;;;;;;;;;24.70;70.40;;;;;;8388417;28;19954;-66
2022/07/20 02:48:26;;;;;;;;;;;24.60;70.60;;;;;;8389115;28;19924;-66
2022/07/20 02:52:28;;;;;;;;;;;24.50;70.80;;;;;;8390879;28;20367;-66
2022/07/20 02:56:29;;;;;;;;;;;24.50;71.00;;;;;;8394983;28;20209;-66
2022/07/20 03:00:31;;;;;;;;;;;24.40;70.80;;;;;;8391125;28;19924;-66
2022/07/20 03:04:33;;;;;;;;;;;24.40;70.70;;;;;;8386106;28;19924;-66
2022/07/20 03:08:35;;;;;;;;;;;24.40;71.10;;;;;;8384577;28;19928;-66
2022/07/20 03:12:36;;;;;;;;;;;24.40;72.30;;;;;;8383794;28;19932;-66
2022/07/20 03:16:38;;;;;;;;;;;24.40;73.70;;;;;;8390084;28;19927;-66
2022/07/20 03:20:40;;;;;;;;;;;24.40;75.00;;;;;;8393012;28;20011;-66
2022/07/20 03:24:41;;;;;;;;;;;24.40;75.50;;;;;;8389413;28;19979;-66
2022/07/20 03:38:50;;;;;;;;;;;24.40;76.60;;;;;;8381516;28;20023;-66
2022/07/20 03:42:52;;;;;;;;;;;24.40;76.70;;;;;;8384720;28;19959;-66
2022/07/20 03:46:54;;;;;;;;;;;24.40;76.80;;;;;;8392501;28;20375;-66
2022/07/20 03:50:56;;;;;;;;;;;24.40;77.00;;;;;;8394372;28;19967;-66
2022/07/20 03:54:57;;;;;;;;;;;24.30;77.10;;;;;;8390170;28;19931;-66
2022/07/20 03:58:59;;;;;;;;;;;24.30;77.50;;;;;;8383708;28;19924;-66
2022/07/20 04:03:01;;;;;;;;;;;24.20;77.80;;;;;;8382941;28;19931;-66
2022/07/20 04:07:02;;;;;;;;;;;24.10;78.10;;;;;;8385426;28;19943;-66
2022/07/20 04:11:04;;;;;;;;;;;24.10;78.70;;;;;;8387592;28;19924;-66
2022/07/20 04:15:06;;;;;;;;;;;24.00;79.40;;;;;;8391062;28;19928;-66
2022/07/20 04:19:08;;;;;;;;;;;23.90;79.80;;;;;;8389576;28;20248;-66
2022/07/20 04:23:11;;;;;;;;;;;23.80;80.10;;;;;;8388841;28;19943;-66
2022/07/20 04:27:13;;;;;;;;;;;23.80;80.90;;;;;;8388534;28;19920;-66
2022/07/20 04:31:15;;;;;;;;;;;23.70;81.60;;;;;;8424165;28;19920;-66
2022/07/20 04:35:16;;;;;;;;;;;23.70;82.40;;;;;;8389450;28;20340;-66
2022/07/20 04:39:18;;;;;;;;;;;23.60;83.20;;;;;;8379015;28;19960;-66
2022/07/20 04:43:20;;;;;;;;;;;23.60;83.80;;;;;;8381981;28;19927;-66
2022/07/20 04:47:22;;;;;;;;;;;23.60;84.40;;;;;;8385204;28;19927;-66
2022/07/20 04:51:23;;;;;;;;;;;23.70;85.30;;;;;;8384858;28;19927;-66
2022/07/20 04:55:25;;;;;;;;;;;23.70;85.90;;;;;;8388537;28;19920;-66
2022/07/20 04:59:27;;;;;;;;;;;23.70;87.30;;;;;;8390418;28;19924;-66
2022/07/20 05:03:29;;;;;;;;;;;23.80;87.30;;;;;;8393207;28;20000;-66
2022/07/20 05:07:30;;;;;;;;;;;23.80;87.90;;;;;;8386510;28;20343;-66
2022/07/20 05:11:33;;;;;;;;;;;23.80;88.40;;;;;;8383253;28;19920;-66
2022/07/20 05:15:34;;;;;;;;;;;23.90;89.40;;;;;;8385253;28;19920;-66
2022/07/20 05:19:36;;;;;;;;;;;23.90;90.00;;;;;;8381760;28;20875;-66
2022/07/20 05:23:38;;;;;;;;;;;24.00;90.20;;;;;;8382863;28;20252;-66
2022/07/20 05:27:40;;;;;;;;;;;24.10;90.60;;;;;;8380176;28;19928;-66
2022/07/20 05:31:41;;;;;;;;;;;24.10;90.70;;;;;;8390287;28;20363;-66
2022/07/20 05:35:44;;;;;;;;;;;24.10;91.10;;;;;;8380761;28;19929;-66
2022/07/20 05:39:46;;;;;;;;;;;24.20;91.40;;;;;;8382231;28;19921;-66
2022/07/20 05:43:47;;;;;;;;;;;24.20;91.50;;;;;;8390142;28;19996;-66
2022/07/20 05:47:49;;;;;;;;;;;24.30;91.80;;;;;;8376189;28;19921;-66
2022/07/20 05:51:50;;;;;;;;;;;24.30;92.10;;;;;;8358427;28;20387;-66
2022/07/20 05:55:52;;;;;;;;;;;24.30;92.40;;;;;;8353963;28;19932;-66
2022/07/20 05:59:54;;;;;;;;;;;24.40;92.80;;;;;;8351818;28;19921;-66
2022/07/20 06:03:56;;;;;;;;;;;24.40;93.20;;;;;;8350946;28;20372;-66
2022/07/20 06:08:00;;;;;;;;;;;24.50;93.40;;;;;;8350065;28;20336;-66
2022/07/20 06:12:02;;;;;;;;;;;24.50;94.10;;;;;;8367048;28;20017;-66
2022/07/20 06:16:04;;;;;;;;;;;24.50;94.20;;;;;;8366938;28;19940;-66
2022/07/20 06:20:08;;;;;;;;;;;24.60;94.60;;;;;;8353103;28;20264;-66
2022/07/20 06:24:09;;;;;;;;;;;24.60;95.10;;;;;;8351738;28;19924;-66
2022/07/20 06:28:17;;;;;;;;;;;24.70;95.20;;;;;;8358067;28;19960;-66
2022/07/20 06:32:19;;;;;;;;;;;24.80;95.60;;;;;;8357495;28;19920;-66
2022/07/20 06:36:20;;;;;;;;;;;24.80;95.90;;;;;;8355383;28;20025;-66
2022/07/20 06:40:22;;;;;;;;;;;24.90;96.30;;;;;;8362523;28;19928;-66
2022/07/20 06:44:24;;;;;;;;;;;24.90;96.40;;;;;;8356555;28;19929;-66
2022/07/20 06:48:25;;;;;;;;;;;24.80;96.60;;;;;;8356707;28;20295;-66
2022/07/20 06:52:27;;;;;;;;;;;24.70;96.70;;;;;;8357584;28;20482;-66
2022/07/20 06:56:29;;;;;;;;;;;24.70;96.90;;;;;;8355241;28;19962;-66
2022/07/20 07:00:31;;;;;;;;;;;24.60;96.90;;;;;;8357530;28;19924;-66
2022/07/20 07:04:33;;;;;;;;;;;24.50;97.10;;;;;;8356967;28;19928;-66
2022/07/20 07:08:34;;;;;;;;;;;24.40;97.80;;;;;;8357588;28;20000;-66
2022/07/20 07:12:36;;;;;;;;;;;24.30;98.00;;;;;;8353739;28;19927;-66
2022/07/20 07:16:37;;;;;;;;;;;24.20;98.60;;;;;;8372163;28;19947;-66
2022/07/20 07:20:39;;;;;;;;;;;24.30;98.80;;;;;;8356611;28;19921;-66
2022/07/20 07:24:41;;;;;;;;;;;24.40;99.70;;;;;;8352452;28;19921;-66
2022/07/20 07:28:42;;;;;;;;;;;24.50;99.20;;;;;;8355227;28;20376;-66
2022/07/20 07:32:44;;;;;;;;;;;24.60;99.60;;;;;;8355078;28;20368;-66
2022/07/20 07:36:46;;;;;;;;;;;24.70;99.90;;;;;;8367499;28;20373;-66
2022/07/20 07:40:48;;;;;;;;;;;24.70;99.90;;;;;;8337420;28;20398;-66
2022/07/20 07:44:49;;;;;;;12.82;8.57;;;24.70;99.90;;;;;;8354432;28;19921;-66
2022/07/20 07:48:51;;;;;;;11.88;8.10;;;24.70;99.90;;;;;;8354778;28;20057;-66
2022/07/20 07:52:54;;;;;;;15.48;8.48;;;24.80;99.90;;;;;;8354826;28;20499;-66
2022/07/20 07:56:57;;;;;;;12.75;8.30;;;24.80;99.90;;;;;;8352144;28;20462;-66
2022/07/20 08:00:59;;;;;;;13.60;9.63;;;24.90;99.90;;;;;;8354020;28;20049;-66
2022/07/20 08:05:02;;;;;;;13.15;8.43;;;25.00;99.90;;;;;;8353819;28;20424;-66
2022/07/20 08:14:26;;;;;;;13.45;8.63;;;25.10;99.90;;;;;;8353490;28;20091;-66
2022/07/20 08:18:27;;;;;;;13.93;8.82;;;25.20;99.90;;;;;;8353645;28;20056;-66
2022/07/20 08:22:29;;;;;;;13.50;8.75;;;25.30;99.90;;;;;;8354868;28;20480;-66
2022/07/20 08:26:31;;;;;;;10.30;8.57;;;25.30;99.90;;;;;;8353431;28;20051;-66
2022/07/20 08:30:33;;;;;;;12.13;7.50;;;25.40;99.90;;;;;;8354526;28;20507;-66
2022/07/20 08:34:54;;;;;;;11.20;8.45;;;25.50;99.90;;;;;;8353244;28;20049;-66
2022/07/20 08:38:56;;;;;;;10.52;8.18;;;25.60;99.90;;;;;;8354409;28;20049;-66
2022/07/20 08:42:58;;;;;;;10.20;7.20;;;25.70;99.90;;;;;;8352780;28;20045;-66
2022/07/20 08:47:01;;;;;;;10.10;7.28;;;25.60;99.90;;;;;;8353291;28;20527;-66
2022/07/20 08:51:03;;;;;;;12.80;7.60;;;25.60;99.90;;;;;;8354054;28;20052;-66
2022/07/20 08:55:05;;;;;;;11.02;7.38;;;25.70;99.90;;;;;;8334769;28;20057;-66
2022/07/20 08:59:07;;;;;;;11.75;7.75;;;25.80;99.90;;;;;;8353187;28;20045;-66
2022/07/20 09:03:10;;;;;;;12.43;8.00;;;25.70;99.90;;;;;;8337063;28;20412;-66
2022/07/20 09:07:12;;;;;;;9.90;8.10;;;25.80;99.90;;;;;;8353741;28;20055;-66
2022/07/20 09:11:18;;;;;;;10.98;8.20;;;25.80;99.90;;;;;;8353924;28;20045;-66
2022/07/20 09:15:27;;;;;;;10.07;7.43;;;25.90;99.90;;;;;;8351237;28;20056;-66
2022/07/20 09:19:49;;;;;;;10.82;7.47;;;26.00;99.90;;;;;;8351897;28;20480;-66
2022/07/20 09:23:54;;;;;;;10.68;7.70;;;26.00;99.90;;;;;;8353802;28;19929;-66
2022/07/20 09:27:57;;;;;;;12.60;7.32;;;26.10;99.90;;;;;;8353402;28;20041;-66
2022/07/20 09:32:03;;;;;;;11.55;7.35;;;26.20;99.90;;;;;;8352620;28;20044;-66
2022/07/20 09:36:07;;;;;;;10.85;6.70;;;26.30;99.90;;;;;;8351228;28;20156;-66
2022/07/20 09:40:09;;;;;;;10.45;6.72;;;26.30;99.90;;;;;;8352149;28;20056;-66
2022/07/20 09:44:24;;;;;;;8.75;6.47;;;26.40;99.90;;;;;;8349372;28;20067;-66
2022/07/20 09:48:26;;;;;;;10.27;6.45;;;26.50;99.90;;;;;;8354045;28;20041;-66
2022/07/20 09:52:28;;;;;;;12.50;7.45;;;26.60;99.90;;;;;;8337753;28;20505;-66
2022/07/20 09:56:38;;;;;;;11.02;7.85;;;26.70;99.90;;;;;;8350156;28;20045;-66
2022/07/20 10:00:40;;;;;;;9.80;7.05;;;26.70;99.90;;;;;;8353807;28;20377;-66
2022/07/20 10:04:49;;;;;;;10.80;7.10;;;26.70;99.90;;;;;;8357751;28;20134;-66
2022/07/20 10:08:51;;;;;;;8.27;6.50;;;26.60;99.70;;;;;;8359331;28;20076;-65
2022/07/20 10:13:40;;;;;;;11.02;6.47;;;26.70;99.60;;;;;;8357474;28;20052;-66
2022/07/20 10:28:34;;;;;;;6.07;5.05;;;26.80;99.90;;;;;;8357081;28;20047;-66
2022/07/20 10:32:50;;;;;;;9.10;6.00;;;27.00;99.90;;;;;;8361036;28;20041;-66
2022/07/20 10:37:24;;;;;;;7.43;4.80;;;27.10;99.70;;;;;;8353611;28;20040;-66
2022/07/20 10:41:32;;;;;;;6.85;4.63;;;27.10;99.00;;;;;;8355898;28;20048;-66
2022/07/20 10:45:34;;;;;;;7.60;4.40;;;27.10;99.10;;;;;;8355171;28;20411;-66
2022/07/20 10:50:00;;;;;;;8.15;3.97;;;27.10;99.20;;;;;;8355937;28;20056;-66
2022/07/20 10:54:31;;;;;;;6.07;3.83;;;27.10;99.10;;;;;;8356633;28;20049;-66
2022/07/20 10:58:35;;;;;;;8.13;4.10;;;27.20;98.40;;;;;;8355336;28;20045;-66
2022/07/20 11:02:37;;;;;;;6.70;3.78;;;27.10;98.90;;;;;;8357511;28;20041;-66
2022/07/20 11:06:40;;;;;;;7.30;4.63;;;27.20;98.70;;;;;;8355554;28;20156;-66
2022/07/20 11:10:42;;;;;;;9.77;4.75;;;27.30;99.10;;;;;;8356389;28;20083;-66
2022/07/20 11:15:02;;;;;;;6.78;4.03;;;27.30;99.20;;;;;;8355435;28;20048;-66
2022/07/20 11:19:06;;;;;;;6.68;4.60;;;27.30;99.20;;;;;;8356772;28;20392;-66
2022/07/20 11:23:07;;;;;;;8.93;4.72;;;27.40;99.20;;;;;;8373125;28;20056;-66
2022/07/20 11:27:16;;;;;;;7.63;4.60;;;27.40;99.10;;;;;;8340031;28;20487;-66
2022/07/20 11:31:21;;;;;;;6.75;4.60;;;27.40;99.20;;;;;;8357732;28;20045;-66
2022/07/20 11:35:23;;;;;;;7.82;4.07;;;27.40;98.90;;;;;;8355426;28;20078;-66
2022/07/20 11:39:24;;;;;;;7.13;4.10;;;27.40;98.60;;;;;;8355453;28;20461;-66
2022/07/20 11:43:27;;;;;;;7.05;4.13;;;27.50;98.40;;;;;;8353727;28;20349;-66
2022/07/20 11:47:28;;;;;;;6.28;3.50;;;27.60;98.60;;;;;;8353963;28;20052;-66
2022/07/20 11:51:32;;;;;;;5.32;3.75;;;27.50;98.60;;;;;;8354644;28;20051;-66
2022/07/20 11:55:37;;;;;;;7.25;4.40;;;27.40;98.30;;;;;;8355603;28;20052;-66
2022/07/20 11:59:45;;;;;;;7.28;4.55;;;27.40;98.70;;;;;;8354349;28;20481;-66
2022/07/20 12:03:50;;;;;;;5.97;3.80;;;27.40;98.30;;;;;;8354137;28;20673;-66
2022/07/20 12:08:10;;;;;;;5.85;3.90;;;27.40;98.40;;;;;;8355430;28;20417;-66
2022/07/20 12:17:34;;;;;;;5.97;3.83;;;27.50;98.60;;;;;;8353195;28;20043;-66
2022/07/20 12:21:44;;;;;;;6.07;4.13;;;27.50;98.10;;;;;;8353540;28;20049;-67
2022/07/20 12:25:45;;;;;;;8.20;3.83;;;27.60;98.40;;;;;;8367405;28;20167;-66
2022/07/20 12:29:47;;;;;;;4.78;3.28;;;27.70;98.50;;;;;;8353836;28;20056;-66
2022/07/20 12:34:08;;;;;;;8.63;4.45;;;27.60;98.00;;;;;;8351515;28;20121;-66
2022/07/20 12:38:11;;;;;;;6.07;3.95;;;27.60;98.30;;;;;;8352736;28;20159;-66
2022/07/20 12:42:15;;;;;;;8.35;4.60;;;27.50;98.50;;;;;;8353885;28;20103;-66
2022/07/20 12:46:32;;;;;;;7.97;4.95;;;27.40;98.70;;;;;;8351793;28;20052;-66
2022/07/20 12:50:34;;;;;;;7.22;4.38;;;27.10;98.80;;;;;;8353109;28;20095;-66
2022/07/20 12:54:36;;;;;;;7.30;4.43;;;26.90;99.30;;;;;;8335581;28;20504;-66
2022/07/20 12:59:00;;;;;;;8.45;4.70;;;26.80;99.50;;;;;;8352735;28;20045;-66
2022/07/20 13:03:03;;;;;;;7.82;4.43;;;26.70;99.80;;;;;;8350974;28;20090;-66
2022/07/20 13:07:05;;;;;;;8.98;5.35;;;26.70;99.90;;;;;;8349984;28;20130;-66
2022/07/20 13:11:07;;;;;;;7.20;4.40;;;26.60;99.60;;;;;;8351056;28;20053;-66
2022/07/20 13:25:54;;;;;;;6.63;4.50;;;26.20;99.70;;;;;;8348880;28;20040;-66
2022/07/20 13:29:56;;;;;;;8.25;4.80;;;26.10;99.70;;;;;;8352257;28;20048;-66
2022/07/20 13:33:58;;;;;;;7.70;5.13;;;25.90;99.80;;;;;;8350586;28;20470;-67
2022/07/20 13:38:02;;;;;;;7.30;5.22;;;25.70;99.90;;;;;;8332558;28;20041;-66
2022/07/20 13:42:06;;;;;;;9.60;5.50;;;25.70;99.90;;;;;;8349075;28;20045;-66
2022/07/20 13:46:09;;;;;;;7.80;4.40;;;25.80;99.90;;;;;;8348303;28;20102;-66
2022/07/20 13:50:11;;;;;;;8.73;4.88;;;25.80;99.90;;;;;;8352121;28;20053;-66
2022/07/20 13:54:13;;;;;;;8.63;5.80;;;25.80;99.90;;;;;;8349879;28;20073;-66
2022/07/20 13:58:15;;;;;;;9.18;6.13;;;25.90;99.90;;;;;;8256505;28;1776287;-66
2022/07/20 14:02:17;;;;;;;9.77;6.32;;;25.80;99.90;;;;;;8318729;28;20050;-66
2022/07/20 14:06:21;;;;;;;8.75;5.97;;;25.70;99.90;;;;;;8317401;28;20052;-66
2022/07/20 14:10:23;;;;;;;11.82;6.90;;;25.70;99.90;;;;;;8316328;28;20041;-66
2022/07/20 14:14:24;;;;;;;9.13;6.47;;;25.90;99.90;;;;;;8315955;28;20056;-66
2022/07/20 14:18:26;;;;;;;9.73;6.57;;;25.90;99.90;;;;;;8317956;28;20056;-66
2022/07/20 14:22:28;;;;;;;9.77;6.68;;;25.90;99.90;;;;;;8317020;28;20385;-66
2022/07/20 14:26:30;;;;;;;9.20;6.32;;;26.00;99.90;;;;;;8320751;28;20065;-66
2022/07/20 14:30:32;;;;;;;11.77;7.13;;;26.10;99.90;;;;;;8316938;28;20054;-66
2022/07/20 14:34:34;;;;;;;10.43;6.45;;;26.20;99.90;;;;;;8318947;28;20476;-66
2022/07/20 14:38:35;;;;;;;9.75;6.80;;;26.20;99.90;;;;;;8317544;28;20048;-66
2022/07/20 14:42:38;;;;;;;9.50;6.90;;;26.30;99.90;;;;;;8316777;28;20053;-66
2022/07/20 14:46:40;;;;;;;9.57;7.28;;;26.30;99.90;;;;;;8318903;28;20049;-66
2022/07/20 14:50:42;;;;;;;9.70;6.85;;;26.50;99.90;;;;;;8323597;28;20880;-66
2022/07/20 14:54:44;;;;;;;10.48;6.68;;;26.70;99.90;;;;;;8323977;28;20060;-66
2022/07/20 14:58:45;;;;;;;10.13;6.25;;;27.00;99.90;;;;;;8357695;28;20045;-66
2022/07/20 15:02:47;;;;;;;9.82;7.28;;;27.20;99.90;;;;;;8340597;28;20052;-66
2022/07/20 15:06:49;;;;;;;11.63;8.00;;;27.30;99.90;;;;;;8355174;28;20055;-66
2022/07/20 15:10:55;;;;;;;10.40;7.60;;;27.10;99.90;;;;;;8355353;28;20069;-66
2022/07/20 15:14:56;;;;;;;10.63;7.38;;;26.90;99.90;;;;;;8370429;28;20045;-66
2022/07/20 15:18:58;;;;;;;12.52;8.63;;;26.90;99.90;;;;;;8355826;28;20049;-66
2022/07/20 15:23:00;;;;;;;9.43;7.55;;;26.90;99.90;;;;;;8356863;28;20404;-66
2022/07/20 15:27:02;;;;;;;11.63;8.40;;;26.90;99.90;;;;;;8353244;28;20400;-66
2022/07/20 15:31:12;;;;;;;12.52;8.40;;;26.90;99.90;;;;;;8354621;28;20053;-66
2022/07/20 15:35:14;;;;;;;12.43;8.90;;;27.00;99.90;;;;;;8353283;28;20057;-66
2022/07/20 15:39:18;;;;;;;10.80;8.52;;;27.00;99.90;;;;;;8355442;28;20479;-66
2022/07/20 15:43:20;;;;;;;12.90;9.43;;;27.00;99.90;;;;;;8339981;28;20168;-66
2022/07/20 15:47:22;;;;;;;9.98;7.50;;;27.00;99.90;;;;;;8353800;28;20045;-66
2022/07/20 15:51:23;;;;;;;11.20;7.85;;;27.00;99.90;;;;;;8355053;28;20056;-66
2022/07/20 15:55:25;;;;;;;10.05;8.02;;;27.10;99.90;;;;;;8353008;28;20417;-66
2022/07/20 15:59:28;;;;;;;12.93;8.80;;;27.30;99.90;;;;;;8354429;28;20065;-66
2022/07/20 16:03:30;;;;;;;13.27;7.97;;;27.50;99.90;;;;;;8337410;28;20067;-66
2022/07/20 16:07:32;;;;;;;10.57;7.78;;;27.80;99.90;;;;;;8351160;28;20447;-66
2022/07/20 16:11:34;;;;;;;10.57;7.72;;;28.20;99.90;;;;;;8353839;28;20052;-66
2022/07/20 16:15:35;;;;;;;11.07;7.97;;;28.50;99.90;;;;;;8353891;28;20400;-66
2022/07/20 16:19:38;;;;;;;11.55;8.00;;;28.80;99.90;;;;;;8353165;28;20068;-66
2022/07/20 16:23:43;;;;;;;11.60;8.05;;;29.00;99.90;;;;;;8370806;28;20411;-66
2022/07/20 16:27:45;;;;;;;9.35;7.60;;;29.30;99.90;;;;;;8353293;28;20131;-66
2022/07/20 16:31:47;;;;;;;11.57;9.23;;;29.40;99.90;;;;;;8368959;28;20053;-66
2022/07/20 16:35:49;;;;;;;11.10;8.57;;;29.60;99.90;;;;;;8352506;28;20072;-66
2022/07/20 16:39:52;;;;;;;11.90;8.68;;;29.40;99.90;;;;;;8335176;28;20041;-66
2022/07/20 16:43:53;;;;;;;10.57;7.72;;;29.40;99.90;;;;;;8352040;28;20051;-66
2022/07/20 16:47:55;;;;;;;12.48;8.18;;;29.30;99.90;;;;;;8351683;28;20052;-66
2022/07/20 16:51:57;;;;;;;13.52;7.93;;;29.00;99.90;;;;;;8353634;28;20045;-66
2022/07/20 16:56:01;;;;;;;11.60;7.32;;;28.70;99.90;;;;;;8351179;28;20041;-66
2022/07/20 17:00:08;;;;;;;9.85;7.47;;;28.70;99.90;;;;;;8352896;28;20041;-66
2022/07/20 17:04:15;;;;;;;11.82;7.60;;;28.70;99.90;;;;;;8355879;28;20040;-66
2022/07/20 17:08:17;;;;;;;10.15;6.55;;;28.60;99.90;;;;;;8352068;28;21276;-66
2022/07/20 17:12:20;;;;;;;9.80;6.70;;;28.60;99.90;;;;;;8351471;28;20052;-66
2022/07/20 17:16:22;;;;;;;10.52;7.10;;;28.70;99.90;;;;;;8351237;28;20479;-66
2022/07/20 17:20:24;;;;;;;11.93;7.75;;;28.80;99.90;;;;;;8353424;28;20136;-66
2022/07/20 17:24:27;;;;;;;11.45;7.32;;;28.80;99.90;;;;;;8351023;28;20045;-66
2022/07/20 17:28:29;;;;;;;11.02;7.63;;;28.70;99.90;;;;;;8350636;28;20045;-66
2022/07/20 17:32:31;;;;;;;9.23;7.03;;;28.70;99.90;;;;;;8351534;28;20443;-66
2022/07/20 17:36:33;;;;;;;10.60;7.53;;;28.50;99.90;;;;;;8366946;28;20045;-66
2022/07/20 17:40:34;;;;;;;11.60;8.05;;;28.40;99.90;;;;;;8351949;28;20094;-66
2022/07/20 17:44:36;;;;;;;12.75;8.68;;;28.20;99.90;;;;;;8351638;28;20049;-66
2022/07/20 17:48:38;;;;;;;11.07;8.60;;;28.00;99.90;;;;;;8353473;28;20464;-66
2022/07/20 17:52:40;;;;;;;12.55;8.23;;;27.90;99.90;;;;;;8351975;28;20049;-66
2022/07/20 17:56:42;;;;;;;11.80;8.10;;;27.80;99.90;;;;;;8349455;28;20156;-66
2022/07/20 18:00:44;;;;;;;13.95;8.25;;;27.80;99.90;;;;;;8350780;28;20052;-66
2022/07/20 18:04:46;;;;;;;12.27;9.10;;;27.80;99.90;;;;;;8351707;28;20041;-66
2022/07/20 18:08:48;;;;;;;13.15;8.30;;;27.80;99.90;;;;;;8349910;28;20052;-66
2022/07/20 18:12:50;;;;;;;13.48;8.07;;;27.70;99.90;;;;;;8350896;28;20045;-66
2022/07/20 18:17:12;;;;;;;13.13;8.93;;;27.70;99.90;;;;;;8337044;28;20139;-66
2022/07/20 18:21:15;;;;;;;12.18;8.48;;;27.60;99.90;;;;;;8351869;28;20041;-66
2022/07/20 18:25:17;;;;;;;12.70;8.65;;;27.50;99.90;;;;;;8357295;28;20530;-66
2022/07/20 18:29:19;;;;;;;11.30;8.30;;;27.50;99.90;;;;;;8356203;28;20053;-66
2022/07/20 18:33:21;;;;;;;12.70;8.05;;;27.40;99.90;;;;;;8356938;28;20049;-66
2022/07/20 18:37:23;;;;;;;29.58;8.43;;;27.30;99.90;;;;;;8354946;28;20487;-66
2022/07/20 18:41:24;;;;;;;11.73;7.55;;;27.10;99.80;;;;;;8355419;28;20103;-66
2022/07/20 18:45:26;;;;;;;10.85;8.32;;;27.00;99.80;;;;;;8357802;28;20052;-66
2022/07/20 18:49:29;;;;;;;10.20;8.07;;;26.90;99.80;;;;;;8357853;28;20411;-66
2022/07/20 18:53:32;;;;;;;11.70;8.13;;;26.90;99.90;;;;;;8356722;28;20503;-66
2022/07/20 18:57:34;;;;;;;11.57;8.38;;;26.80;99.90;;;;;;8357043;28;20044;-66
2022/07/20 19:01:36;;;;;;;10.80;8.23;;;26.70;99.90;;;;;;8358185;28;20041;-66
2022/07/20 19:05:38;;;;;;;9.98;7.85;;;26.60;99.90;;;;;;8356186;28;20492;-66
2022/07/20 19:09:40;;;;;;;11.27;8.48;;;26.50;99.90;;;;;;8355107;28;20404;-66
2022/07/20 19:13:42;;;;;;;11.60;8.55;;;26.50;99.90;;;;;;8354801;28;20052;-66
2022/07/20 19:17:44;;;;;;;10.43;8.27;;;26.40;99.90;;;;;;8354564;28;20049;-66
2022/07/20 19:21:45;;;;;;;10.25;7.45;;;26.30;99.90;;;;;;8353905;28;20052;-66
2022/07/20 19:25:47;;;;;;;10.32;8.13;;;26.20;99.90;;;;;;8354442;28;20385;-66
2022/07/20 19:29:49;;;;;;;11.55;7.93;;;26.20;99.90;;;;;;8339162;28;20041;-66
2022/07/20 19:33:58;;;;;;;13.25;8.57;;;26.20;99.90;;;;;;8354722;28;20043;-66
2022/07/20 19:38:00;;;;;;;13.10;9.02;;;26.10;99.90;;;;;;8337676;28;20485;-66
2022/07/20 19:42:02;;;;;;;13.65;9.15;;;26.10;99.90;;;;;;8356946;28;20044;-66
2022/07/20 19:46:07;;;;;;;11.80;8.70;;;26.00;99.90;;;;;;8353463;28;20551;-66
2022/07/20 19:50:09;;;;;;;12.02;9.23;;;26.00;99.90;;;;;;8354166;28;20420;-66
2022/07/20 19:54:11;;;;;;;13.00;9.35;;;25.90;99.90;;;;;;8354613;28;20049;-66
2022/07/20 19:58:13;;;;;;;12.75;9.20;;;25.80;99.90;;;;;;8337156;28;20477;-66
2022/07/20 20:02:15;;;;;;;10.05;7.65;;;25.80;99.90;;;;;;8354508;28;20046;-66
2022/07/20 20:06:17;;;;;;;11.60;7.60;;;25.70;99.90;;;;;;8354088;28;20076;-66
2022/07/20 20:10:19;;;;;;;12.55;8.27;;;25.60;99.90;;;;;;8353993;28;20455;-66
2022/07/20 20:14:22;;;;;;;12.80;8.55;;;25.70;99.90;;;;;;8352172;28;20051;-66
2022/07/20 20:18:24;;;;;;;13.27;9.20;;;25.70;99.90;;;;;;8354387;28;20151;-66
2022/07/20 20:22:26;;;;;;;12.60;9.27;;;25.60;99.90;;;;;;8351391;28;20530;-66
2022/07/20 20:26:28;;;;;;;13.43;10.10;;;25.50;99.90;;;;;;8353741;28;20060;-66
2022/07/20 20:30:29;;;;;;;14.10;9.25;;;25.40;99.90;;;;;;8368845;28;20066;-66
2022/07/20 20:34:31;;;;;;;11.27;9.02;;;25.20;99.90;;;;;;8354861;28;20049;-66
2022/07/20 20:54:39;;;;;;;12.43;8.73;;;25.00;99.90;;;;;;8351350;28;20027;-66
2022/07/20 20:58:41;;;;;;;14.90;9.32;;;25.00;99.90;;;;;;8335827;28;20052;-66
2022/07/20 21:02:43;;;;;;;12.75;10.00;;;24.90;99.90;;;;;;8367947;28;20049;-66
2022/07/20 21:06:45;;;;;;;17.73;10.27;;;24.80;99.90;;;;;;8392115;28;20101;-66
2022/07/20 21:10:47;;;;;;;13.82;10.20;;;24.70;99.90;;;;;;8380942;28;20060;-66
2022/07/20 21:14:49;;;;;;;13.38;10.40;;;24.50;99.90;;;;;;8381009;28;20048;-66
2022/07/20 21:18:51;;;;;;;12.70;10.93;;;24.30;99.90;;;;;;8379862;28;20490;-66
2022/07/20 21:22:54;;;;;;;13.65;10.60;;;24.20;99.90;;;;;;8381633;28;20040;-66
2022/07/20 21:27:01;;;;;;;13.95;11.38;;;24.10;99.90;;;;;;8370224;28;20040;-66
2022/07/20 21:31:03;;;;;;;16.52;11.57;;;24.00;99.90;;;;;;8379815;28;20072;-66
2022/07/20 21:35:05;;;;;;;16.67;12.55;;;23.80;99.90;;;;;;8383756;28;20056;-66
2022/07/20 21:39:09;;;;;;;14.90;11.70;;;23.80;99.90;;;;;;8377814;28;20044;-66
2022/07/20 21:43:11;;;;;;;14.82;11.68;;;23.70;99.90;;;;;;8387828;28;20051;-66
2022/07/20 21:47:12;;;;;;;;;;;23.70;99.90;;;;;;8389758;28;20056;-66
2022/07/20 21:51:14;;;;;;;;;;;23.60;99.90;;;;;;8384110;28;25062;-66
2022/07/20 21:55:16;;;;;;;;;;;23.60;99.90;;;;;;8367331;28;19920;-66
2022/07/20 21:59:17;;;;;;;;;;;23.50;99.90;;;;;;8392071;28;19920;-66
2022/07/20 22:03:19;;;;;;;;;;;23.40;99.90;;;;;;8392072;28;19924;-66
2022/07/20 22:07:21;;;;;;;;;;;23.40;99.90;;;;;;8393416;28;19932;-66
2022/07/20 22:11:22;;;;;;;;;;;23.30;99.90;;;;;;8398656;28;19920;-66
2022/07/20 22:15:24;;;;;;;;;;;23.30;99.90;;;;;;8390357;28;19920;-66
2022/07/20 22:19:26;;;;;;;;;;;23.30;99.90;;;;;;8381193;28;19973;-66
2022/07/20 22:23:28;;;;;;;;;;;23.20;99.90;;;;;;8382931;28;19921;-66
2022/07/20 22:27:31;;;;;;;;;;;23.20;99.90;;;;;;8372702;28;20291;-66
2022/07/20 22:31:32;;;;;;;;;;;23.10;99.90;;;;;;8379593;28;20296;-66
2022/07/20 22:35:35;;;;;;;;;;;23.10;99.90;;;;;;8391958;28;19927;-66
2022/07/20 22:39:36;;;;;;;;;;;22.90;99.90;;;;;;8377308;28;20320;-66
2022/07/20 22:48:41;;;;;;;;;;;22.80;99.90;;;;;;8384891;28;19989;-66
2022/07/20 22:52:43;;;;;;;;;;;22.80;99.90;;;;;;8390688;28;20072;-66
2022/07/20 22:56:45;;;;;;;;;;;22.80;99.90;;;;;;8392625;28;19931;-66
2022/07/20 23:00:47;;;;;;;;;;;22.80;99.90;;;;;;8395883;28;19925;-66
2022/07/20 23:04:48;;;;;;;;;;;22.80;99.90;;;;;;8393981;28;20011;-66